Raiger Juan Segundo — EA3764 — position and weather

sailwx.info

Track history (hours):
 
Tides and Currents Weather Stations Pressure Air Temp Water Temp Dewpoint Dewpoint Depression Visibility Wind Speed Wind Dir Waves Ship Positions

Raiger Juan Segundo

Last reported at 2018-Jun-14 13:32 UTC. Time now 2018-Jun-24 05:31 UTC.
Position N 43°34' W 005°41'.
Warning: this ship's position is 9 days out of date.

Length 16 m; draft 16.5 m.

Type: Fishing. MMSI: 224041990.

Date/timePositionNaut miles runAvg speedWind from/ knotsBaromVisibWave heightAir tempDewpointWater temp
2018-Jun-14 13:32N 43°34' W 005°41'0 7.9
2018-Jun-14 13:28N 43°34' W 005°41'  
2018-Jun-08 13:26N 43°34' W 005°41'3 7.2
2018-Jun-08 12:59N 43°37' W 005°43'8 0.7
2018-Jun-08 02:35N 43°44' W 005°47'3 7.7
2018-Jun-08 02:13N 43°41' W 005°45'  
2018-Jun-04 19:55N 43°33' W 005°42'0 0.0
2018-Jun-04 19:25N 43°33' W 005°42'0 0.0
2018-Jun-04 19:00N 43°33' W 005°42'0 0.0
2018-Jun-04 18:22N 43°33' W 005°42'0 0.0
2018-Jun-04 17:58N 43°33' W 005°42'0 0.0
2018-Jun-04 17:30N 43°33' W 005°42'0 0.0
2018-Jun-04 16:57N 43°33' W 005°42'0 0.0
2018-Jun-04 16:28N 43°33' W 005°42'0 0.0
2018-Jun-04 15:58N 43°33' W 005°42'0 0.0
2018-Jun-04 15:29N 43°33' W 005°42'0 0.0
2018-Jun-04 15:00N 43°33' W 005°42'2 3.5
2018-Jun-04 14:30N 43°35' W 005°40'  
Track history (hours):
 
Tides and Currents Weather Stations Pressure Air Temp Water Temp Dewpoint Dewpoint Depression Visibility Wind Speed Wind Dir Waves Ship Positions

Raiger Juan Segundo

Last reported at 2018-Jun-14 13:32 UTC. Time now 2018-Jun-24 05:31 UTC.
Position N 43°34' W 005°41'.
Warning: this ship's position is 9 days out of date.

Length 16 m; draft 16.5 m.

Type: Fishing. MMSI: 224041990.

Date/timePositionNaut miles runAvg speedWind from/ knotsBaromVisibWave heightAir tempDewpointWater temp
2018-Jun-14 13:32N 43°34' W 005°41'0 7.9
2018-Jun-14 13:28N 43°34' W 005°41'  
2018-Jun-08 13:26N 43°34' W 005°41'3 7.2
2018-Jun-08 12:59N 43°37' W 005°43'8 0.7
2018-Jun-08 02:35N 43°44' W 005°47'3 7.7
2018-Jun-08 02:13N 43°41' W 005°45'  
2018-Jun-04 19:55N 43°33' W 005°42'0 0.0
2018-Jun-04 19:25N 43°33' W 005°42'0 0.0
2018-Jun-04 19:00N 43°33' W 005°42'0 0.0
2018-Jun-04 18:22N 43°33' W 005°42'0 0.0
2018-Jun-04 17:58N 43°33' W 005°42'0 0.0
2018-Jun-04 17:30N 43°33' W 005°42'0 0.0
2018-Jun-04 16:57N 43°33' W 005°42'0 0.0
2018-Jun-04 16:28N 43°33' W 005°42'0 0.0
2018-Jun-04 15:58N 43°33' W 005°42'0 0.0
2018-Jun-04 15:29N 43°33' W 005°42'0 0.0
2018-Jun-04 15:00N 43°33' W 005°42'2 3.5
2018-Jun-04 14:30N 43°35' W 005°40'  

Dump ship's entire track history